createdAt,value
2018-09-19T00:02:17.109Z,72.99
2018-09-19T00:04:45.747Z,72.85
2018-09-19T00:07:14.071Z,72.68
2018-09-19T00:09:42.422Z,72.80
2018-09-19T00:12:10.855Z,72.94
2018-09-19T00:14:39.175Z,72.58
2018-09-19T00:17:07.581Z,73.14
2018-09-19T00:19:36.028Z,73.03
2018-09-19T00:22:04.363Z,72.81
2018-09-19T00:24:32.699Z,73.50
2018-09-19T00:27:01.083Z,73.21
2018-09-19T00:29:29.427Z,73.68
2018-09-19T00:31:57.855Z,73.19
2018-09-19T00:34:26.275Z,73.32
2018-09-19T00:36:54.721Z,73.25
2018-09-19T00:39:23.046Z,73.45
2018-09-19T00:41:51.447Z,73.28
2018-09-19T00:44:19.910Z,73.36
2018-09-19T00:46:48.249Z,73.43
2018-09-19T00:49:16.650Z,73.71
2018-09-19T00:51:45.094Z,73.76
2018-09-19T00:54:13.632Z,73.44
2018-09-19T00:56:42.098Z,73.46
2018-09-19T00:59:10.506Z,73.92
2018-09-19T01:01:38.904Z,74.18
2018-09-19T01:04:07.262Z,73.98
2018-09-19T01:06:35.591Z,74.03
2018-09-19T01:09:04.924Z,74.09
2018-09-19T01:11:33.419Z,73.58
2018-09-19T01:14:01.750Z,73.52
2018-09-19T01:16:30.084Z,74.02
2018-09-19T01:18:58.470Z,73.83
2018-09-19T01:21:27.027Z,73.67
2018-09-19T01:23:55.451Z,73.58
2018-09-19T01:26:23.859Z,73.98
2018-09-19T01:28:52.212Z,74.12
2018-09-19T01:31:20.540Z,73.79
2018-09-19T01:33:48.985Z,74.18
2018-09-19T01:36:17.328Z,74.20
2018-09-19T01:38:45.672Z,74.03
2018-09-19T01:41:14.047Z,74.13
2018-09-19T01:43:42.476Z,74.15
2018-09-19T01:46:10.925Z,73.85
2018-09-19T01:48:39.309Z,74.24
2018-09-19T01:51:08.295Z,74.46
2018-09-19T01:53:36.693Z,74.11
2018-09-19T01:56:05.292Z,74.37
2018-09-19T01:58:33.623Z,74.30
2018-09-19T02:01:01.992Z,74.43
2018-09-19T02:03:30.349Z,74.42
2018-09-19T02:05:58.679Z,74.25
2018-09-19T02:08:27.072Z,73.89
2018-09-19T02:10:55.451Z,73.66
2018-09-19T02:13:23.828Z,73.68
2018-09-19T02:15:52.276Z,73.57
2018-09-19T02:18:20.588Z,73.57
2018-09-19T02:20:48.932Z,73.66
2018-09-19T02:23:17.335Z,73.97
2018-09-19T02:25:45.745Z,73.41
2018-09-19T02:28:14.144Z,73.54
2018-09-19T02:30:42.579Z,73.31
2018-09-19T02:33:11.182Z,73.24
2018-09-19T02:35:39.535Z,73.40
2018-09-19T02:38:07.918Z,73.11
2018-09-19T02:40:36.332Z,73.17
2018-09-19T02:43:05.959Z,73.51
2018-09-19T02:45:34.304Z,73.28
2018-09-19T02:48:02.697Z,73.51
2018-09-19T02:50:31.051Z,73.55
2018-09-19T02:52:59.415Z,73.37
2018-09-19T02:55:27.796Z,73.37
2018-09-19T02:57:56.174Z,73.51
2018-09-19T03:00:24.536Z,74.08
2018-09-19T03:02:53.007Z,73.57
2018-09-19T03:05:21.414Z,73.84
2018-09-19T03:07:49.791Z,74.37
2018-09-19T03:10:18.239Z,74.48
2018-09-19T03:12:46.669Z,74.46
2018-09-19T03:15:14.999Z,74.54
2018-09-19T03:17:43.704Z,74.59
2018-09-19T03:20:11.815Z,74.55
2018-09-19T03:22:40.157Z,74.24
2018-09-19T03:25:08.772Z,74.47
2018-09-19T03:27:37.291Z,74.30
2018-09-19T03:30:06.241Z,74.26
2018-09-19T03:32:34.809Z,74.35
2018-09-19T03:35:03.188Z,74.38
2018-09-19T03:37:31.517Z,74.40
2018-09-19T03:39:59.903Z,74.21
2018-09-19T03:42:28.225Z,74.14
2018-09-19T03:44:56.578Z,74.64
2018-09-19T03:47:24.998Z,74.24
2018-09-19T03:49:53.330Z,74.36
2018-09-19T03:52:21.718Z,74.54
2018-09-19T03:54:50.160Z,74.74
2018-09-19T03:57:18.493Z,74.56
2018-09-19T03:59:47.332Z,74.41
2018-09-19T04:02:15.789Z,74.36
2018-09-19T04:04:44.240Z,74.57
2018-09-19T04:07:12.555Z,74.75
2018-09-19T04:09:41.051Z,74.50
2018-09-19T04:12:09.476Z,74.80
2018-09-19T04:14:37.853Z,74.83
2018-09-19T04:17:06.243Z,74.93
2018-09-19T04:19:34.625Z,74.75
2018-09-19T04:22:03.152Z,74.85
2018-09-19T04:24:31.669Z,74.94
2018-09-19T04:27:00.083Z,75.27
2018-09-19T04:29:28.384Z,74.99
2018-09-19T04:31:57.018Z,75.24
2018-09-19T04:34:25.346Z,75.61
2018-09-19T04:36:53.762Z,75.33
2018-09-19T04:39:22.193Z,75.72
2018-09-19T04:41:50.529Z,75.82
2018-09-19T04:44:18.899Z,76.18
2018-09-19T04:46:47.315Z,76.16
2018-09-19T04:49:15.740Z,75.83
2018-09-19T04:51:44.069Z,75.96
2018-09-19T04:54:12.622Z,76.16
2018-09-19T04:56:41.104Z,76.09
2018-09-19T04:59:09.454Z,75.95
2018-09-19T05:01:37.811Z,75.96
2018-09-19T05:04:06.255Z,75.83
2018-09-19T05:06:34.724Z,75.69
2018-09-19T05:09:03.438Z,75.67
2018-09-19T05:11:31.803Z,75.48
2018-09-19T05:14:00.152Z,75.88
2018-09-19T05:16:28.632Z,75.57
2018-09-19T05:18:57.028Z,75.64
2018-09-19T05:21:25.362Z,75.09
2018-09-19T05:23:53.818Z,75.04
2018-09-19T05:26:22.250Z,75.55
2018-09-19T05:28:50.654Z,75.48
2018-09-19T05:31:19.032Z,75.04
2018-09-19T05:33:47.504Z,75.21
2018-09-19T05:36:15.871Z,75.23
2018-09-19T05:38:44.268Z,74.72
2018-09-19T05:41:12.913Z,75.01
2018-09-19T05:43:41.430Z,74.77
2018-09-19T05:46:09.968Z,74.97
2018-09-19T05:48:38.311Z,74.99
2018-09-19T05:51:06.687Z,74.57
2018-09-19T05:53:35.441Z,74.70
2018-09-19T05:56:03.767Z,74.44
2018-09-19T05:58:32.320Z,74.61
2018-09-19T06:01:00.847Z,74.10
2018-09-19T06:03:29.365Z,74.39
2018-09-19T06:05:57.699Z,74.03
2018-09-19T06:08:26.160Z,74.11
2018-09-19T06:10:54.519Z,74.15
2018-09-19T06:13:22.844Z,74.28
2018-09-19T06:15:51.452Z,74.03
2018-09-19T06:18:19.801Z,73.92
2018-09-19T06:20:48.219Z,74.21
2018-09-19T06:23:16.596Z,73.72
2018-09-19T06:25:45.039Z,74.02
2018-09-19T06:28:13.632Z,73.82
2018-09-19T06:30:42.708Z,73.76
2018-09-19T06:33:11.275Z,73.97
2018-09-19T06:35:39.609Z,73.82
2018-09-19T06:38:08.193Z,73.61
2018-09-19T06:40:36.579Z,73.55
2018-09-19T06:43:04.919Z,73.40
2018-09-19T06:45:33.351Z,73.63
2018-09-19T06:48:01.709Z,73.31
2018-09-19T06:50:30.120Z,73.04
2018-09-19T06:52:59.291Z,73.00
2018-09-19T06:55:27.840Z,72.44
2018-09-19T06:57:56.758Z,72.61
2018-09-19T07:00:25.448Z,72.80
2018-09-19T07:02:53.854Z,72.26
2018-09-19T07:05:22.176Z,72.10
2018-09-19T07:07:50.530Z,72.15
2018-09-19T07:10:18.860Z,72.38
2018-09-19T07:12:47.188Z,71.91
2018-09-19T07:15:15.669Z,71.97
2018-09-19T07:17:44.090Z,71.53
2018-09-19T07:20:12.484Z,71.23
2018-09-19T07:22:41.053Z,71.39
2018-09-19T07:25:09.415Z,70.83
2018-09-19T07:27:37.827Z,70.74
2018-09-19T07:30:06.968Z,71.02
2018-09-19T07:32:35.556Z,70.40
2018-09-19T07:35:03.991Z,70.40
2018-09-19T07:37:32.356Z,69.64
2018-09-19T07:40:00.739Z,69.97
2018-09-19T07:42:29.115Z,69.99
2018-09-19T07:44:57.503Z,69.96
2018-09-19T07:47:25.872Z,70.00
2018-09-19T07:49:54.212Z,70.08
2018-09-19T07:52:22.639Z,69.99
2018-09-19T07:54:51.015Z,69.67
2018-09-19T07:57:19.387Z,69.74
2018-09-19T07:59:47.763Z,69.80
2018-09-19T08:02:16.269Z,70.05
2018-09-19T08:04:44.592Z,69.76
2018-09-19T08:07:13.044Z,69.91
2018-09-19T08:09:41.579Z,69.88
2018-09-19T08:12:09.975Z,69.84
2018-09-19T08:14:38.539Z,69.64
2018-09-19T08:17:07.490Z,69.60
2018-09-19T08:19:35.923Z,69.18
2018-09-19T08:22:04.588Z,68.94
2018-09-19T08:24:32.920Z,68.79
2018-09-19T08:27:01.348Z,68.65
2018-09-19T08:29:30.109Z,68.42
2018-09-19T08:31:58.515Z,68.19
2018-09-19T08:34:26.861Z,68.16
2018-09-19T08:36:55.342Z,67.62
2018-09-19T08:39:23.866Z,67.16
2018-09-19T08:41:52.243Z,66.78
2018-09-19T08:44:20.603Z,66.49
2018-09-19T08:46:48.943Z,66.57
2018-09-19T08:49:17.280Z,66.51
2018-09-19T08:51:45.684Z,66.25
2018-09-19T08:54:14.046Z,65.20
2018-09-19T08:56:42.380Z,65.22
2018-09-19T08:59:17.282Z,65.14
2018-09-19T09:01:45.637Z,65.25
2018-09-19T09:04:14.040Z,64.82
2018-09-19T09:06:42.504Z,64.01
2018-09-19T09:09:10.857Z,63.84
2018-09-19T09:11:39.227Z,63.74
2018-09-19T09:14:08.073Z,63.82
2018-09-19T09:16:36.424Z,63.60
2018-09-19T09:19:04.775Z,63.22
2018-09-19T09:21:33.234Z,63.29
2018-09-19T09:24:01.556Z,63.14
2018-09-19T09:26:30.042Z,62.67
2018-09-19T09:28:58.435Z,62.99
2018-09-19T09:31:26.867Z,62.46
2018-09-19T09:33:55.257Z,62.42
2018-09-19T09:36:23.627Z,62.10
2018-09-19T09:38:52.012Z,62.10
2018-09-19T09:41:20.359Z,62.06
2018-09-19T09:43:49.285Z,62.16
2018-09-19T09:46:17.633Z,61.66
2018-09-19T09:48:46.043Z,61.67
2018-09-19T09:51:14.484Z,62.01
2018-09-19T09:53:42.818Z,61.20
2018-09-19T09:56:11.159Z,60.90
2018-09-19T09:58:39.598Z,60.48
2018-09-19T10:01:08.038Z,60.30
2018-09-19T10:03:36.387Z,59.46
2018-09-19T10:06:05.017Z,59.42
2018-09-19T10:08:33.385Z,59.57
2018-09-19T10:11:01.842Z,58.89
2018-09-19T10:13:30.247Z,58.97
2018-09-19T10:15:58.537Z,57.99
2018-09-19T10:18:26.874Z,57.57
2018-09-19T10:20:55.273Z,56.99
2018-09-19T10:23:23.608Z,56.80
2018-09-19T10:25:52.040Z,57.21
2018-09-19T10:28:20.424Z,56.44
2018-09-19T10:30:49.443Z,56.24
2018-09-19T10:33:17.827Z,55.85
2018-09-19T10:35:46.443Z,55.83
2018-09-19T10:38:14.827Z,55.52
2018-09-19T10:40:43.211Z,55.58
2018-09-19T10:43:11.615Z,55.20
2018-09-19T10:45:39.957Z,55.24
2018-09-19T10:48:08.447Z,55.04
2018-09-19T10:50:36.823Z,55.04
2018-09-19T10:53:05.139Z,55.83
2018-09-19T10:55:33.479Z,55.55
2018-09-19T10:58:01.863Z,56.21
2018-09-19T11:00:30.185Z,56.41
2018-09-19T11:02:58.504Z,56.55
2018-09-19T11:05:26.920Z,55.61
2018-09-19T11:07:55.369Z,55.36
2018-09-19T11:10:23.696Z,54.51
2018-09-19T11:12:52.166Z,53.26
2018-09-19T11:15:20.500Z,53.80
2018-09-19T11:17:48.820Z,54.20
2018-09-19T11:20:17.272Z,54.49
2018-09-19T11:22:45.584Z,53.24
2018-09-19T11:25:13.950Z,53.51
2018-09-19T11:27:42.384Z,54.31
2018-09-19T11:30:10.836Z,54.29
2018-09-19T11:32:39.180Z,54.75
2018-09-19T11:35:07.632Z,54.29
2018-09-19T11:37:36.017Z,53.86
2018-09-19T11:40:04.384Z,53.82
2018-09-19T11:42:32.870Z,53.46
2018-09-19T11:45:01.213Z,54.29
2018-09-19T11:47:29.547Z,54.16
2018-09-19T11:49:57.928Z,53.47
2018-09-19T11:52:26.262Z,53.53
2018-09-19T11:54:54.596Z,53.31
2018-09-19T11:57:22.984Z,53.20
2018-09-19T11:59:51.332Z,51.32
2018-09-19T12:02:19.658Z,52.71
2018-09-19T12:04:48.126Z,52.56
2018-09-19T12:07:16.696Z,52.22
2018-09-19T12:09:45.005Z,52.33
2018-09-19T12:12:13.368Z,51.71
2018-09-19T12:14:41.699Z,49.72
2018-09-19T12:17:10.032Z,50.54
2018-09-19T12:19:38.398Z,50.37
2018-09-19T12:22:06.756Z,51.27
2018-09-19T12:24:35.108Z,50.71
2018-09-19T12:27:03.603Z,51.02
2018-09-19T12:29:31.967Z,50.52
2018-09-19T12:32:00.307Z,50.83
2018-09-19T12:34:28.708Z,50.29
2018-09-19T12:36:57.056Z,50.30
2018-09-19T12:39:25.438Z,50.47
2018-09-19T12:41:53.791Z,49.60
2018-09-19T12:44:22.132Z,49.24
2018-09-19T12:46:50.463Z,48.10
2018-09-19T12:49:18.901Z,47.33
2018-09-19T12:51:47.252Z,47.44
2018-09-19T12:54:15.651Z,48.43
2018-09-19T12:56:44.603Z,48.69
2018-09-19T12:59:13.036Z,47.72
2018-09-19T13:01:41.403Z,47.43
2018-09-19T13:04:09.785Z,47.64
2018-09-19T13:06:38.170Z,47.93
2018-09-19T13:09:09.433Z,47.20
2018-09-19T13:11:38.186Z,46.13
2018-09-19T13:14:06.580Z,46.14
2018-09-19T13:16:34.964Z,46.13
2018-09-19T13:19:03.482Z,45.87
2018-09-19T13:21:31.813Z,45.83
2018-09-19T13:24:00.174Z,45.85
2018-09-19T13:26:28.614Z,45.86
2018-09-19T13:28:56.935Z,46.04
2018-09-19T13:31:25.277Z,46.42
2018-09-19T13:33:53.667Z,46.41
2018-09-19T13:36:21.990Z,46.54
2018-09-19T13:38:50.339Z,46.22
2018-09-19T13:41:18.814Z,45.78
2018-09-19T13:43:47.157Z,45.29
2018-09-19T13:46:15.541Z,44.53
2018-09-19T13:48:46.550Z,44.95
2018-09-19T13:51:19.826Z,45.41
2018-09-19T13:53:48.269Z,45.02
2018-09-19T13:56:16.632Z,44.50
2018-09-19T13:58:45.036Z,43.75
2018-09-19T14:01:13.444Z,43.65
2018-09-19T14:03:41.830Z,43.33
2018-09-19T14:06:10.194Z,43.96
2018-09-19T14:08:38.720Z,44.30
2018-09-19T14:11:07.176Z,44.93
2018-09-19T14:13:35.521Z,44.77
2018-09-19T14:16:03.988Z,44.31
2018-09-19T14:18:32.405Z,44.64
2018-09-19T14:21:00.893Z,44.19
2018-09-19T14:23:29.278Z,44.44
2018-09-19T14:25:57.714Z,44.48
2018-09-19T14:28:26.124Z,43.96
2018-09-19T14:30:55.111Z,43.79
2018-09-19T14:33:23.597Z,43.33
2018-09-19T14:35:52.167Z,43.54
2018-09-19T14:38:20.419Z,43.82
2018-09-19T14:40:48.777Z,43.69
2018-09-19T14:43:17.208Z,43.42
2018-09-19T14:45:45.867Z,43.92
2018-09-19T14:48:14.221Z,44.31
2018-09-19T14:50:42.547Z,44.29
2018-09-19T14:53:10.931Z,44.34
2018-09-19T14:55:39.323Z,44.80
2018-09-19T14:58:07.651Z,44.86
2018-09-19T15:00:36.610Z,45.05
2018-09-19T15:03:05.248Z,45.04
2018-09-19T15:05:33.752Z,45.07
2018-09-19T15:08:02.155Z,45.12
2018-09-19T15:10:30.580Z,45.06
2018-09-19T15:12:58.912Z,45.51
2018-09-19T15:15:27.432Z,45.58
2018-09-19T15:17:55.805Z,44.88
2018-09-19T15:20:24.200Z,44.82
2018-09-19T15:22:52.876Z,45.31
2018-09-19T15:25:22.201Z,45.57
2018-09-19T15:27:50.641Z,45.92
2018-09-19T15:30:19.256Z,46.25
2018-09-19T15:32:47.689Z,46.21
2018-09-19T15:35:16.140Z,46.00
2018-09-19T15:37:44.520Z,45.56
2018-09-19T15:40:12.919Z,45.04
2018-09-19T15:42:41.308Z,45.34
2018-09-19T15:45:09.749Z,44.75
2018-09-19T15:47:38.279Z,45.02
2018-09-19T15:50:06.752Z,45.48
2018-09-19T15:52:35.183Z,45.78
2018-09-19T15:55:03.807Z,46.28
2018-09-19T15:57:32.473Z,46.67
2018-09-19T16:00:00.972Z,45.98
2018-09-19T16:02:29.521Z,46.82
2018-09-19T16:04:57.887Z,46.98
2018-09-19T16:07:26.359Z,47.42
2018-09-19T16:09:54.740Z,47.47
2018-09-19T16:12:23.184Z,47.52
2018-09-19T16:14:51.600Z,47.91
2018-09-19T16:17:20.005Z,47.49
2018-09-19T16:19:48.356Z,48.19
2018-09-19T16:22:16.783Z,48.46
2018-09-19T16:24:45.157Z,47.75
2018-09-19T16:27:13.605Z,47.82
2018-09-19T16:29:42.836Z,47.78
2018-09-19T16:32:11.175Z,47.91
2018-09-19T16:34:39.520Z,48.01
2018-09-19T16:37:07.960Z,48.33
2018-09-19T16:39:36.312Z,48.65
2018-09-19T16:42:04.855Z,49.21
2018-09-19T16:44:33.273Z,48.85
2018-09-19T16:47:01.660Z,49.32
2018-09-19T16:49:30.008Z,49.06
2018-09-19T16:51:58.373Z,49.57
2018-09-19T16:54:26.728Z,49.44
2018-09-19T16:56:55.088Z,49.44
2018-09-19T16:59:23.605Z,49.07
2018-09-19T17:01:52.023Z,49.15
2018-09-19T17:04:20.455Z,49.38
2018-09-19T17:06:49.274Z,49.93
2018-09-19T17:09:17.671Z,50.31
2018-09-19T17:11:46.228Z,50.48
2018-09-19T17:14:14.652Z,50.75
2018-09-19T17:16:42.992Z,51.43
2018-09-19T17:19:11.387Z,51.69
2018-09-19T17:21:39.864Z,52.17
2018-09-19T17:24:08.196Z,52.35
2018-09-19T17:26:36.540Z,53.54
2018-09-19T17:29:05.097Z,54.71
2018-09-19T17:31:33.515Z,55.06
2018-09-19T17:34:01.849Z,55.85
2018-09-19T17:36:30.828Z,56.11
2018-09-19T17:38:59.256Z,56.12
2018-09-19T17:41:27.690Z,56.92
2018-09-19T17:43:56.135Z,57.03
2018-09-19T17:46:24.603Z,57.63
2018-09-19T17:48:53.604Z,57.77
2018-09-19T17:51:22.108Z,58.11
2018-09-19T17:53:50.544Z,58.64
2018-09-19T17:56:19.044Z,58.70
2018-09-19T17:58:47.688Z,59.09
2018-09-19T18:01:16.105Z,59.29
2018-09-19T18:03:44.468Z,59.14
2018-09-19T18:06:13.094Z,59.33
2018-09-19T18:08:41.515Z,59.72
2018-09-19T18:11:09.884Z,60.24
2018-09-19T18:13:38.422Z,59.98
2018-09-19T18:16:06.890Z,59.66
2018-09-19T18:18:35.888Z,59.51
2018-09-19T18:21:04.380Z,59.72
2018-09-19T18:23:32.848Z,60.24
2018-09-19T18:26:01.277Z,60.14
2018-09-19T18:28:29.800Z,60.04
2018-09-19T18:30:58.328Z,59.89
2018-09-19T18:33:26.737Z,60.44
2018-09-19T18:35:55.256Z,60.95
2018-09-19T18:38:23.696Z,60.71
2018-09-19T18:40:52.213Z,60.90
2018-09-19T18:43:20.599Z,60.78
2018-09-19T18:45:49.123Z,61.28
2018-09-19T18:48:17.516Z,61.29
2018-09-19T18:50:45.984Z,61.73
2018-09-19T18:53:14.357Z,61.54
2018-09-19T18:55:42.736Z,61.98
2018-09-19T18:58:11.244Z,62.42
2018-09-19T19:00:39.676Z,62.56
2018-09-19T19:03:08.064Z,62.57
2018-09-19T19:05:36.508Z,62.30
2018-09-19T19:08:04.978Z,62.69
2018-09-19T19:10:33.320Z,63.16
2018-09-19T19:13:01.851Z,62.85
2018-09-19T19:15:30.211Z,63.15
2018-09-19T19:17:58.558Z,63.06
2018-09-19T19:20:26.956Z,62.90
2018-09-19T19:22:55.272Z,62.26
2018-09-19T19:25:23.700Z,62.29
2018-09-19T19:27:52.176Z,62.14
2018-09-19T19:30:20.720Z,62.08
2018-09-19T19:32:49.028Z,61.55
2018-09-19T19:35:17.441Z,61.63
2018-09-19T19:37:45.886Z,61.30
2018-09-19T19:40:14.147Z,61.44
2018-09-19T19:42:42.506Z,61.56
2018-09-19T19:45:11.851Z,61.44
2018-09-19T19:47:40.752Z,62.07
2018-09-19T19:50:09.315Z,62.27
2018-09-19T19:52:37.871Z,62.16
2018-09-19T19:55:06.253Z,62.60
2018-09-19T19:57:34.875Z,62.32
2018-09-19T20:00:03.265Z,62.99
2018-09-19T20:02:31.647Z,62.90
2018-09-19T20:05:00.216Z,63.05
2018-09-19T20:07:28.583Z,62.58
2018-09-19T20:09:57.035Z,62.59
2018-09-19T20:12:25.439Z,62.45
2018-09-19T20:14:53.889Z,62.65
2018-09-19T20:17:22.229Z,62.66
2018-09-19T20:19:50.625Z,62.51
2018-09-19T20:22:18.943Z,63.25
2018-09-19T20:24:47.343Z,63.17
2018-09-19T20:27:15.743Z,63.29
2018-09-19T20:29:44.061Z,64.00
2018-09-19T20:32:12.481Z,64.13
2018-09-19T20:34:41.073Z,64.48
2018-09-19T20:37:09.529Z,64.93
2018-09-19T20:39:37.982Z,65.20
2018-09-19T20:42:06.438Z,65.13
2018-09-19T20:44:34.775Z,65.16
2018-09-19T20:47:03.269Z,64.89
2018-09-19T20:49:31.763Z,64.60
2018-09-19T20:52:00.147Z,64.70
2018-09-19T20:54:28.564Z,64.68
2018-09-19T20:56:57.027Z,64.82
2018-09-19T20:59:25.407Z,64.88
2018-09-19T21:01:53.831Z,64.94
2018-09-19T21:04:22.297Z,65.11
2018-09-19T21:06:50.691Z,64.96
2018-09-19T21:09:19.075Z,64.99
2018-09-19T21:11:47.479Z,64.84
2018-09-19T21:14:15.787Z,64.88
2018-09-19T21:16:44.409Z,64.86
2018-09-19T21:19:12.767Z,65.35
2018-09-19T21:21:41.213Z,65.37
2018-09-19T21:24:09.639Z,65.57
2018-09-19T21:26:38.063Z,65.90
2018-09-19T21:29:06.443Z,65.71
2018-09-19T21:31:34.899Z,65.93
2018-09-19T21:34:03.455Z,65.46
2018-09-19T21:36:31.796Z,65.44
2018-09-19T21:39:00.117Z,65.44
2018-09-19T21:41:28.513Z,65.75
2018-09-19T21:43:56.891Z,65.64
2018-09-19T21:46:25.308Z,65.85
2018-09-19T21:48:53.761Z,65.99
2018-09-19T21:51:22.080Z,66.16
2018-09-19T21:53:50.405Z,66.38
2018-09-19T21:56:18.834Z,66.17
2018-09-19T21:58:47.260Z,66.39
2018-09-19T22:01:20.020Z,66.67
2018-09-19T22:03:48.340Z,66.56
2018-09-19T22:06:16.688Z,66.58
2018-09-19T22:08:45.096Z,66.08
2018-09-19T22:11:13.548Z,66.05
2018-09-19T22:13:41.880Z,65.88
2018-09-19T22:16:10.260Z,65.92
2018-09-19T22:18:38.884Z,66.25
2018-09-19T22:21:07.220Z,65.97
2018-09-19T22:23:35.719Z,66.15
2018-09-19T22:26:04.138Z,66.32
2018-09-19T22:28:32.577Z,66.58
2018-09-19T22:31:01.038Z,66.58
2018-09-19T22:33:29.459Z,67.10
2018-09-19T22:35:57.859Z,66.99
2018-09-19T22:38:26.272Z,67.18
2018-09-19T22:40:54.589Z,66.88
2018-09-19T22:43:22.922Z,66.78
2018-09-19T22:45:51.290Z,66.59
2018-09-19T22:48:19.616Z,66.55
2018-09-19T22:50:48.443Z,66.57
2018-09-19T22:53:23.568Z,66.07
2018-09-19T22:55:51.897Z,66.50
2018-09-19T22:58:20.320Z,66.40
2018-09-19T23:00:48.723Z,66.02
2018-09-19T23:03:17.180Z,66.17
2018-09-19T23:05:45.663Z,66.18
2018-09-19T23:08:14.244Z,66.17
2018-09-19T23:10:42.578Z,66.47
2018-09-19T23:13:10.999Z,66.32
2018-09-19T23:15:39.569Z,66.21
2018-09-19T23:18:07.953Z,66.42
2018-09-19T23:20:36.373Z,66.29
2018-09-19T23:23:05.003Z,65.85
2018-09-19T23:25:33.664Z,65.97
2018-09-19T23:28:02.074Z,66.17
2018-09-19T23:30:30.439Z,66.69
2018-09-19T23:32:58.843Z,66.85
2018-09-19T23:35:27.180Z,66.69
2018-09-19T23:37:55.735Z,66.76
2018-09-19T23:40:24.064Z,66.76
2018-09-19T23:42:52.498Z,66.99
2018-09-19T23:45:21.140Z,66.60
2018-09-19T23:47:49.533Z,66.96
2018-09-19T23:50:17.913Z,67.31
2018-09-19T23:52:46.318Z,67.01
2018-09-19T23:55:14.824Z,67.03
2018-09-19T23:57:43.261Z,67.09
